• Join FlightAware (Why Join?)
  • Login
  • US Flag 
06:29AM EDT


 

Airport Tracker/Info


-or-


 

Live Flight TrackerFlight Track Log ✈ JTA625 ✈ 18-Jul-2013 ✈ ROAH / OKA - ROIG / ISG

Flight Track Log - Related Links

Times and Time Zones

All times are in EDT time to prevent confusion due to time zone crossing. See the JTA625 flight status page for this flight to view local times or setup timezone preferences in your user account.

Time Position Orientation Groundspeed Altitude Reporting Facility
EDT Latitude Longitude Course Direction KTS MPH feet Rate Location/Type
05:59AM 25.8934 127.0629 240° Southwest  Level Estimated
06:00AM 25.8428 126.9660 240° Southwest  Level Estimated
06:01AM 25.7921 126.8692 240° Southwest  Level Estimated
06:02AM 25.7413 126.7725 240° Southwest  Level Estimated
06:03AM 25.6905 126.6759 240° Southwest  Level Estimated
06:04AM 25.6396 126.5794 240° Southwest  Level Estimated
06:05AM 25.5887 126.4829 240° Southwest  Level Estimated
06:06AM 25.5377 126.3865 240° Southwest  Level Estimated
06:07AM 25.4866 126.2902 240° Southwest  Level Estimated
06:08AM 25.4354 126.1940 240° Southwest  Level Estimated
06:09AM 25.3843 126.0979 239° Southwest  Level Estimated
06:10AM 25.3330 126.0018 239° Southwest  Level Estimated
06:11AM 25.2817 125.9059 239° Southwest  Level Estimated
06:12AM 25.2303 125.8100 239° Southwest  Level Estimated
06:13AM 25.1788 125.7142 239° Southwest  Level Estimated
06:14AM 25.1273 125.6184 239° Southwest  Level Estimated
06:15AM 25.0758 125.5228 239° Southwest  Level Estimated
06:16AM 25.0241 125.4273 239° Southwest  Level Estimated
06:17AM 24.9724 125.3318 239° Southwest  Level Estimated
06:18AM 24.9207 125.2364 239° Southwest  Level Estimated
06:19AM 24.8689 125.1411 239° Southwest  Level Estimated
06:20AM 24.8170 125.0458 239° Southwest  Level Estimated
06:21AM 24.7650 124.9507 239° Southwest  Level Estimated
06:22AM 24.7131 124.8556 239° Southwest  Level Estimated
06:23AM 24.6610 124.7606 239° Southwest  Level Estimated
06:24AM 24.6089 124.6656 239° Southwest  Level Estimated
06:25AM 24.5567 124.5708 239° Southwest  Level Estimated
06:26AM 24.5045 124.4760 239° Southwest  Level Estimated
06:27AM 24.4522 124.3813 239° Southwest  Level Estimated
06:28AM 24.3998 124.2867 239° Southwest  Level Estimated
06:29AM 24.3474 124.1922 239° Southwest  Level Estimated
06:30AM 24.3445 124.1870 239° Southwest  Level Estimated
06:31AM 24.3445 124.1870 29° Northeast  Level Estimated
06:32AM 24.3445 124.1870 29° Northeast  Level Estimated
06:33AM 24.3445 124.1870 29° Northeast  Level Estimated
06:34AM 24.3445 124.1870 29° Northeast  Level Estimated
06:35AM 24.3445 124.1870 29° Northeast  Level Estimated
06:36AM 24.3445 124.1870 29° Northeast  Level Estimated
06:37AM 24.3445 124.1870 29° Northeast  Level Estimated